createdAt,value
2023-05-04T00:00:08.396Z,9.38
2023-05-04T00:02:55.892Z,9.90
2023-05-04T00:05:23.453Z,9.93
2023-05-04T00:07:50.840Z,9.93
2023-05-04T00:10:18.468Z,10.38
2023-05-04T00:12:46.327Z,10.10
2023-05-04T00:15:13.954Z,9.75
2023-05-04T00:17:41.466Z,10.20
2023-05-04T00:20:10.128Z,9.75
2023-05-04T00:22:37.333Z,10.25
2023-05-04T00:25:06.404Z,10.00
2023-05-04T00:27:35.017Z,9.70
2023-05-04T00:30:03.043Z,9.50
2023-05-04T00:32:30.938Z,10.27
2023-05-04T00:34:59.745Z,9.75
2023-05-04T00:37:26.989Z,9.73
2023-05-04T00:39:54.470Z,9.70
2023-05-04T00:42:21.702Z,9.50
2023-05-04T00:44:49.166Z,9.77
2023-05-04T00:47:19.936Z,10.18
2023-05-04T00:49:47.756Z,10.32
2023-05-04T00:52:16.459Z,9.98
2023-05-04T00:54:46.404Z,10.85
2023-05-04T00:57:15.853Z,10.18
2023-05-04T00:59:43.387Z,10.45
2023-05-04T01:02:10.609Z,9.85
2023-05-04T01:04:38.251Z,10.13
2023-05-04T01:07:29.064Z,9.98
2023-05-04T01:10:04.907Z,10.73
2023-05-04T01:12:41.062Z,10.45
2023-05-04T01:15:12.354Z,10.00
2023-05-04T01:17:39.981Z,10.82
2023-05-04T01:20:09.449Z,10.30
2023-05-04T01:22:38.198Z,10.38
2023-05-04T01:25:07.797Z,10.48
2023-05-04T01:27:46.293Z,10.32
2023-05-04T01:30:17.070Z,10.50
2023-05-04T01:32:45.738Z,9.88
2023-05-04T01:35:13.781Z,10.15
2023-05-04T01:37:41.841Z,9.98
2023-05-04T01:40:09.701Z,10.95
2023-05-04T01:42:37.023Z,10.07
2023-05-04T01:45:04.978Z,10.48
2023-05-04T01:47:32.272Z,10.70
2023-05-04T01:49:59.818Z,9.98
2023-05-04T01:52:27.119Z,9.70
2023-05-04T01:54:54.630Z,10.82
2023-05-04T01:57:22.039Z,10.35
2023-05-04T01:59:49.786Z,10.63
2023-05-04T02:02:17.019Z,10.60
2023-05-04T02:04:44.718Z,10.00
2023-05-04T02:07:12.946Z,10.75
2023-05-04T02:09:40.521Z,10.30
2023-05-04T02:12:08.156Z,10.18
2023-05-04T02:14:36.257Z,9.80
2023-05-04T02:17:03.457Z,10.25
2023-05-04T02:19:31.332Z,10.50
2023-05-04T02:21:58.679Z,10.10
2023-05-04T02:24:26.264Z,10.98
2023-05-04T02:26:53.522Z,10.55
2023-05-04T02:29:21.185Z,9.90
2023-05-04T02:31:48.630Z,10.30
2023-05-04T02:34:16.256Z,10.68
2023-05-04T02:36:43.455Z,10.88
2023-05-04T02:39:11.054Z,10.95
2023-05-04T02:41:38.325Z,10.15
2023-05-04T02:44:05.859Z,10.45
2023-05-04T02:46:33.117Z,10.30
2023-05-04T02:49:00.892Z,10.02
2023-05-04T02:51:28.220Z,9.88
2023-05-04T02:53:55.907Z,10.88
2023-05-04T02:56:24.235Z,9.98
2023-05-04T02:58:51.743Z,10.00
2023-05-04T03:01:19.051Z,10.35
2023-05-04T03:03:46.677Z,10.23
2023-05-04T03:06:13.928Z,10.98
2023-05-04T03:08:41.496Z,9.80
2023-05-04T03:11:08.733Z,10.13
2023-05-04T03:13:36.240Z,10.10
2023-05-04T03:16:05.498Z,10.70
2023-05-04T03:21:18.284Z,10.45
2023-05-04T03:23:46.028Z,9.45
2023-05-04T03:26:13.300Z,10.35
2023-05-04T03:28:40.946Z,9.93
2023-05-04T03:31:08.175Z,9.82
2023-05-04T03:33:35.702Z,10.30
2023-05-04T03:36:03.081Z,9.15
2023-05-04T03:38:31.645Z,10.10
2023-05-04T03:40:58.861Z,9.77
2023-05-04T03:43:26.687Z,9.30
2023-05-04T03:45:53.965Z,10.27
2023-05-04T03:48:21.525Z,10.10
2023-05-04T03:50:48.772Z,9.50
2023-05-04T03:53:16.446Z,9.63
2023-05-04T03:55:43.767Z,9.27
2023-05-04T03:58:11.302Z,9.88
2023-05-04T04:00:38.575Z,9.35
2023-05-04T04:03:06.230Z,9.57
2023-05-04T04:05:33.647Z,9.25
2023-05-04T04:08:01.207Z,8.90
2023-05-04T04:10:28.573Z,9.52
2023-05-04T04:12:57.444Z,9.63
2023-05-04T04:15:24.744Z,9.73
2023-05-04T04:17:52.973Z,9.40
2023-05-04T04:20:20.382Z,9.65
2023-05-04T04:22:47.951Z,8.75
2023-05-04T04:25:15.280Z,9.30
2023-05-04T04:27:42.797Z,9.18
2023-05-04T04:30:10.863Z,8.90
2023-05-04T04:32:38.487Z,9.15
2023-05-04T04:35:06.942Z,9.57
2023-05-04T04:37:34.587Z,9.18
2023-05-04T04:40:02.522Z,8.88
2023-05-04T04:42:30.234Z,9.35
2023-05-04T04:44:57.596Z,9.00
2023-05-04T04:47:25.472Z,9.05
2023-05-04T04:49:52.925Z,9.15
2023-05-04T04:52:20.528Z,8.90
2023-05-04T04:54:47.752Z,9.23
2023-05-04T04:57:15.257Z,9.10
2023-05-04T04:59:42.591Z,9.52
2023-05-04T05:02:10.697Z,9.80
2023-05-04T05:04:39.801Z,9.52
2023-05-04T05:07:08.900Z,9.95
2023-05-04T05:09:36.312Z,9.77
2023-05-04T05:12:07.346Z,9.95
2023-05-04T05:14:35.165Z,8.95
2023-05-04T05:17:06.133Z,9.35
2023-05-04T05:19:37.172Z,8.93
2023-05-04T05:22:04.821Z,8.57
2023-05-04T05:24:32.220Z,8.18
2023-05-04T05:27:00.473Z,8.30
2023-05-04T05:29:27.869Z,8.32
2023-05-04T05:31:55.386Z,8.07
2023-05-04T05:34:22.968Z,7.82
2023-05-04T05:36:50.460Z,7.82
2023-05-04T05:39:20.080Z,7.65
2023-05-04T05:41:47.874Z,7.50
2023-05-04T05:44:15.142Z,7.57
2023-05-04T05:46:42.834Z,7.35
2023-05-04T05:49:10.258Z,7.85
2023-05-04T05:51:37.773Z,7.53
2023-05-04T05:54:05.053Z,7.50
2023-05-04T05:56:32.581Z,7.60
2023-05-04T05:58:59.851Z,7.45
2023-05-04T06:01:27.616Z,7.43
2023-05-04T06:03:55.075Z,7.65
2023-05-04T06:06:22.677Z,7.85
2023-05-04T06:08:49.932Z,6.97
2023-05-04T06:11:17.785Z,7.40
2023-05-04T06:13:45.217Z,7.10
2023-05-04T06:16:13.050Z,6.93
2023-05-04T06:18:40.340Z,6.80
2023-05-04T06:21:07.940Z,6.70
2023-05-04T06:23:36.566Z,7.00
2023-05-04T06:26:05.987Z,7.68
2023-05-04T06:28:34.220Z,6.68
2023-05-04T06:31:02.413Z,6.57
2023-05-04T06:33:29.884Z,6.63
2023-05-04T06:35:58.494Z,6.60
2023-05-04T06:38:25.815Z,6.93
2023-05-04T06:40:53.460Z,6.70
2023-05-04T06:43:20.728Z,7.07
2023-05-04T06:45:48.232Z,6.43
2023-05-04T06:48:15.561Z,6.78
2023-05-04T06:50:43.108Z,7.72
2023-05-04T06:53:11.719Z,6.45
2023-05-04T06:55:39.282Z,6.90
2023-05-04T06:58:06.929Z,6.00
2023-05-04T07:00:35.357Z,6.47
2023-05-04T07:03:02.643Z,6.07
2023-05-04T07:05:30.270Z,6.22
2023-05-04T07:07:58.897Z,6.00
2023-05-04T07:10:26.754Z,5.78
2023-05-04T07:12:54.247Z,5.95
2023-05-04T07:15:21.912Z,5.55
2023-05-04T07:17:49.821Z,5.57
2023-05-04T07:20:17.377Z,5.20
2023-05-04T07:22:44.760Z,5.80
2023-05-04T07:25:12.283Z,6.00
2023-05-04T07:27:40.352Z,6.05
2023-05-04T07:30:08.281Z,5.55
2023-05-04T07:32:35.604Z,5.50
2023-05-04T07:35:03.377Z,5.22
2023-05-04T07:37:30.622Z,5.50
2023-05-04T07:40:00.165Z,5.25
2023-05-04T07:42:29.003Z,5.75
2023-05-04T07:44:56.521Z,4.72
2023-05-04T07:47:24.708Z,5.03
2023-05-04T07:49:52.676Z,4.78
2023-05-04T07:52:19.936Z,4.90
2023-05-04T07:54:47.872Z,5.30
2023-05-04T07:57:15.314Z,4.85
2023-05-04T07:59:42.775Z,5.07
2023-05-04T08:02:10.322Z,5.03
2023-05-04T08:04:38.231Z,4.60
2023-05-04T08:07:05.590Z,4.88
2023-05-04T08:09:33.099Z,4.60
2023-05-04T08:12:02.552Z,4.75
2023-05-04T08:14:30.402Z,5.25
2023-05-04T08:16:57.650Z,5.07
2023-05-04T08:19:25.155Z,4.82
2023-05-04T08:21:53.099Z,4.60
2023-05-04T08:24:20.585Z,4.80
2023-05-04T08:26:55.913Z,4.80
2023-05-04T08:29:31.838Z,4.05
2023-05-04T08:32:00.528Z,4.70
2023-05-04T08:34:28.131Z,4.07
2023-05-04T08:36:55.468Z,4.40
2023-05-04T08:39:22.973Z,4.25
2023-05-04T08:41:50.370Z,4.03
2023-05-04T08:44:19.139Z,4.40
2023-05-04T08:46:53.663Z,4.07
2023-05-04T08:49:22.701Z,4.13
2023-05-04T08:51:51.299Z,3.70
2023-05-04T08:54:20.140Z,3.80
2023-05-04T08:56:47.942Z,3.80
2023-05-04T08:59:20.405Z,3.55
2023-05-04T09:01:57.409Z,4.20
2023-05-04T09:04:29.307Z,3.80
2023-05-04T09:06:57.869Z,3.72
2023-05-04T09:09:29.506Z,3.58
2023-05-04T09:11:56.922Z,4.18
2023-05-04T09:14:32.416Z,4.03
2023-05-04T09:17:01.271Z,3.88
2023-05-04T09:19:33.519Z,3.53
2023-05-04T09:22:01.495Z,3.80
2023-05-04T09:24:29.882Z,3.80
2023-05-04T09:27:11.417Z,3.72
2023-05-04T09:29:40.576Z,3.63
2023-05-04T09:32:13.417Z,3.78
2023-05-04T09:34:51.719Z,3.60
2023-05-04T09:37:22.366Z,3.50
2023-05-04T09:39:59.222Z,3.67
2023-05-04T09:42:26.961Z,3.50
2023-05-04T09:45:01.594Z,3.72
2023-05-04T09:47:36.279Z,3.78
2023-05-04T09:50:20.765Z,3.42
2023-05-04T09:52:49.939Z,3.50
2023-05-04T09:55:19.240Z,3.15
2023-05-04T09:57:49.484Z,3.45
2023-05-04T10:00:18.283Z,3.25
2023-05-04T10:02:46.703Z,3.17
2023-05-04T10:05:17.245Z,3.33
2023-05-04T10:07:45.058Z,3.30
2023-05-04T10:10:13.975Z,3.08
2023-05-04T10:12:41.437Z,3.20
2023-05-04T10:15:10.950Z,3.05
2023-05-04T10:18:00.164Z,3.83
2023-05-04T10:20:58.509Z,3.08
2023-05-04T10:23:44.556Z,2.90
2023-05-04T10:26:41.344Z,3.10
2023-05-04T10:29:26.133Z,2.95
2023-05-04T10:31:53.753Z,3.00
2023-05-04T10:34:32.605Z,3.05
2023-05-04T10:37:01.336Z,2.80
2023-05-04T10:39:33.517Z,3.33
2023-05-04T10:42:03.960Z,3.10
2023-05-04T10:44:37.598Z,3.03
2023-05-04T10:47:07.779Z,3.40
2023-05-04T10:49:35.964Z,3.00
2023-05-04T10:52:08.026Z,3.63
2023-05-04T10:54:36.592Z,2.90
2023-05-04T10:57:06.347Z,3.08
2023-05-04T10:59:36.029Z,2.83
2023-05-04T11:02:05.108Z,2.80
2023-05-04T11:04:33.438Z,2.72
2023-05-04T11:07:06.291Z,2.72
2023-05-04T11:09:42.550Z,2.75
2023-05-04T11:12:13.092Z,2.88
2023-05-04T11:14:43.087Z,2.58
2023-05-04T11:17:27.725Z,2.92
2023-05-04T11:19:56.136Z,2.90
2023-05-04T11:22:23.727Z,2.78
2023-05-04T11:24:51.481Z,2.67
2023-05-04T11:27:30.236Z,2.60
2023-05-04T11:29:59.667Z,2.63
2023-05-04T11:32:34.134Z,2.60
2023-05-04T11:35:02.273Z,2.78
2023-05-04T11:37:30.500Z,2.67
2023-05-04T11:39:58.180Z,2.60
2023-05-04T11:42:26.124Z,2.45
2023-05-04T11:44:55.761Z,2.60
2023-05-04T11:47:23.444Z,2.40
2023-05-04T11:49:51.090Z,2.67
2023-05-04T11:52:24.159Z,2.50
2023-05-04T11:54:57.064Z,2.33
2023-05-04T11:57:24.648Z,2.75
2023-05-04T11:59:51.988Z,2.55
2023-05-04T12:02:20.414Z,2.47
2023-05-04T12:04:47.865Z,2.30
2023-05-04T12:07:15.972Z,2.72
2023-05-04T12:09:49.852Z,2.50
2023-05-04T12:12:19.066Z,2.87
2023-05-04T12:14:54.163Z,2.53
2023-05-04T12:17:21.942Z,2.40
2023-05-04T12:19:56.430Z,2.15
2023-05-04T12:22:32.500Z,2.50
2023-05-04T12:25:00.322Z,2.65
2023-05-04T12:27:27.831Z,2.42
2023-05-04T12:29:55.158Z,2.40
2023-05-04T12:32:23.014Z,2.63
2023-05-04T12:34:50.394Z,2.50
2023-05-04T12:37:17.882Z,2.05
2023-05-04T12:39:46.170Z,2.40
2023-05-04T12:42:14.042Z,2.38
2023-05-04T12:44:42.246Z,2.28
2023-05-04T12:47:09.914Z,2.20
2023-05-04T12:49:37.232Z,2.30
2023-05-04T12:52:04.798Z,2.05
2023-05-04T12:54:32.264Z,2.53
2023-05-04T12:56:59.857Z,2.40
2023-05-04T12:59:27.082Z,2.58
2023-05-04T13:01:54.652Z,2.47
2023-05-04T13:04:21.946Z,2.15
2023-05-04T13:06:49.525Z,2.33
2023-05-04T13:09:16.722Z,2.30
2023-05-04T13:11:44.656Z,2.25
2023-05-04T13:14:13.429Z,2.40
2023-05-04T13:16:41.578Z,2.50
2023-05-04T13:19:08.858Z,2.10
2023-05-04T13:21:36.530Z,2.40
2023-05-04T13:24:03.903Z,2.17
2023-05-04T13:26:31.442Z,2.25
2023-05-04T13:28:58.989Z,2.38
2023-05-04T13:31:26.783Z,2.17
2023-05-04T13:33:54.098Z,1.92
2023-05-04T13:36:22.068Z,1.90
2023-05-04T13:38:49.436Z,2.10
2023-05-04T13:41:17.959Z,2.03
2023-05-04T13:43:45.496Z,1.90
2023-05-04T13:46:13.615Z,1.95
2023-05-04T13:48:40.980Z,2.25
2023-05-04T13:51:08.631Z,1.83
2023-05-04T13:53:35.875Z,2.17
2023-05-04T13:56:03.470Z,2.00
2023-05-04T13:58:30.814Z,1.98
2023-05-04T14:01:00.352Z,2.20
2023-05-04T14:03:29.219Z,1.98
2023-05-04T14:05:58.148Z,2.17
2023-05-04T14:08:25.859Z,2.17
2023-05-04T14:10:53.366Z,1.98
2023-05-04T14:13:20.643Z,1.85
2023-05-04T14:15:49.340Z,1.92
2023-05-04T14:18:17.046Z,1.88
2023-05-04T14:20:44.685Z,2.13
2023-05-04T14:23:11.944Z,2.00
2023-05-04T14:25:41.989Z,1.90
2023-05-04T14:28:09.381Z,2.00
2023-05-04T14:30:37.022Z,1.80
2023-05-04T14:33:04.290Z,2.20
2023-05-04T14:35:31.845Z,2.45
2023-05-04T14:37:59.214Z,2.20
2023-05-04T14:40:26.733Z,2.00
2023-05-04T14:42:54.007Z,2.30
2023-05-04T14:45:21.571Z,2.00
2023-05-04T14:47:48.895Z,2.17
2023-05-04T14:50:16.485Z,1.88
2023-05-04T14:52:44.012Z,1.90
2023-05-04T14:55:11.594Z,2.28
2023-05-04T14:57:39.034Z,2.00
2023-05-04T15:00:08.519Z,2.08
2023-05-04T15:02:36.482Z,2.00
2023-05-04T15:05:04.810Z,1.67
2023-05-04T15:07:32.055Z,1.77
2023-05-04T15:09:59.795Z,1.90
2023-05-04T15:12:27.774Z,1.80
2023-05-04T15:14:55.296Z,2.08
2023-05-04T15:17:22.601Z,2.25
2023-05-04T15:19:50.300Z,2.00
2023-05-04T15:22:17.560Z,2.03
2023-05-04T15:24:45.115Z,1.90
2023-05-04T15:27:12.341Z,2.10
2023-05-04T15:29:39.989Z,1.83
2023-05-04T15:32:07.278Z,1.85
2023-05-04T15:34:34.823Z,1.67
2023-05-04T15:37:02.101Z,2.15
2023-05-04T15:39:31.137Z,2.10
2023-05-04T15:41:58.370Z,1.98
2023-05-04T15:44:27.653Z,1.95
2023-05-04T15:46:54.916Z,1.88
2023-05-04T15:49:22.547Z,2.17
2023-05-04T15:51:50.162Z,2.20
2023-05-04T15:54:17.716Z,2.10
2023-05-04T15:56:44.965Z,2.50
2023-05-04T15:59:12.611Z,2.00
2023-05-04T16:01:40.027Z,2.40
2023-05-04T16:04:07.578Z,1.95
2023-05-04T16:06:34.819Z,1.88
2023-05-04T16:09:02.400Z,2.20
2023-05-04T16:11:30.486Z,2.50
2023-05-04T16:13:57.995Z,2.17
2023-05-04T16:16:25.942Z,2.33
2023-05-04T16:18:53.731Z,2.58
2023-05-04T16:21:21.228Z,2.10
2023-05-04T16:23:48.759Z,2.17
2023-05-04T16:26:15.983Z,1.80
2023-05-04T16:28:45.161Z,2.20
2023-05-04T16:31:12.492Z,2.30
2023-05-04T16:33:46.959Z,2.10
2023-05-04T16:36:14.924Z,2.38
2023-05-04T16:38:42.492Z,2.22
2023-05-04T16:41:09.990Z,1.90
2023-05-04T16:43:37.485Z,2.13
2023-05-04T16:46:04.975Z,2.35
2023-05-04T16:48:32.547Z,2.13
2023-05-04T16:50:59.825Z,2.22
2023-05-04T16:53:27.414Z,2.25
2023-05-04T16:55:54.719Z,2.00
2023-05-04T16:58:22.261Z,1.92
2023-05-04T17:00:49.501Z,2.30
2023-05-04T17:03:17.186Z,2.30
2023-05-04T17:05:44.564Z,2.22
2023-05-04T17:08:12.628Z,2.03
2023-05-04T17:10:39.995Z,2.10
2023-05-04T17:13:07.585Z,2.17
2023-05-04T17:15:35.144Z,2.35
2023-05-04T17:18:02.882Z,1.95
2023-05-04T17:20:32.000Z,2.08
2023-05-04T17:22:59.914Z,2.20
2023-05-04T17:25:27.242Z,2.03
2023-05-04T17:27:54.962Z,1.90
2023-05-04T17:30:22.397Z,1.85
2023-05-04T17:32:51.068Z,2.08
2023-05-04T17:35:25.161Z,2.05
2023-05-04T17:37:58.821Z,1.90
2023-05-04T17:40:27.595Z,2.05
2023-05-04T17:42:56.151Z,2.03
2023-05-04T17:45:23.585Z,2.25
2023-05-04T17:47:51.667Z,1.90
2023-05-04T17:50:19.417Z,2.05
2023-05-04T17:52:52.348Z,2.03
2023-05-04T17:55:19.958Z,2.08
2023-05-04T17:57:47.517Z,2.40
2023-05-04T18:00:15.415Z,2.03
2023-05-04T18:02:43.054Z,2.40
2023-05-04T18:05:10.771Z,2.30
2023-05-04T18:07:38.687Z,2.35
2023-05-04T18:10:06.903Z,2.42
2023-05-04T18:12:35.629Z,2.35
2023-05-04T18:15:08.229Z,2.30
2023-05-04T18:17:37.863Z,2.50
2023-05-04T18:20:08.068Z,2.67
2023-05-04T18:22:36.677Z,2.42
2023-05-04T18:25:04.249Z,2.40
2023-05-04T18:27:33.737Z,2.67
2023-05-04T18:30:04.898Z,2.92
2023-05-04T18:32:32.945Z,2.78
2023-05-04T18:35:01.373Z,2.70
2023-05-04T18:37:31.769Z,2.63
2023-05-04T18:39:59.224Z,2.60
2023-05-04T18:42:27.235Z,4.63
2023-05-04T18:44:54.760Z,3.47
2023-05-04T18:47:22.388Z,2.72
2023-05-04T18:49:52.132Z,2.60
2023-05-04T18:52:20.131Z,2.72
2023-05-04T18:54:47.418Z,2.70
2023-05-04T18:57:15.318Z,2.70
2023-05-04T18:59:42.565Z,3.00
2023-05-04T19:02:10.232Z,2.50
2023-05-04T19:04:37.487Z,2.80
2023-05-04T19:07:05.041Z,3.00
2023-05-04T19:09:32.791Z,3.38
2023-05-04T19:12:00.489Z,2.80
2023-05-04T19:14:30.355Z,2.90
2023-05-04T19:16:58.295Z,2.78
2023-05-04T19:19:25.985Z,2.90
2023-05-04T19:21:53.851Z,3.17
2023-05-04T19:24:21.487Z,2.92
2023-05-04T19:26:49.065Z,2.83
2023-05-04T19:29:17.628Z,3.35
2023-05-04T19:31:45.402Z,3.00
2023-05-04T19:34:12.866Z,2.90
2023-05-04T19:36:40.657Z,2.95
2023-05-04T19:39:09.798Z,2.88
2023-05-04T19:41:37.378Z,3.05
2023-05-04T19:44:10.061Z,2.83
2023-05-04T19:46:37.691Z,2.92
2023-05-04T19:49:04.978Z,2.90
2023-05-04T19:51:32.901Z,3.00
2023-05-04T19:54:00.651Z,3.58
2023-05-04T19:56:28.235Z,2.95
2023-05-04T19:58:55.470Z,2.90
2023-05-04T20:01:23.536Z,3.08
2023-05-04T20:03:50.937Z,3.72
2023-05-04T20:06:18.506Z,3.00
2023-05-04T20:08:45.859Z,2.92
2023-05-04T20:11:13.852Z,3.17
2023-05-04T20:13:42.502Z,3.30
2023-05-04T20:16:10.168Z,3.10
2023-05-04T20:18:37.463Z,3.22
2023-05-04T20:21:05.028Z,3.40
2023-05-04T20:23:32.282Z,2.95
2023-05-04T20:25:59.824Z,3.20
2023-05-04T20:28:27.087Z,3.28
2023-05-04T20:30:54.949Z,3.28
2023-05-04T20:33:22.527Z,3.55
2023-05-04T20:35:50.733Z,3.30
2023-05-04T20:38:18.082Z,3.10
2023-05-04T20:40:45.605Z,3.72
2023-05-04T20:43:13.067Z,3.08
2023-05-04T20:45:40.604Z,3.60
2023-05-04T20:48:07.990Z,3.33
2023-05-04T20:50:35.955Z,3.53
2023-05-04T20:53:03.228Z,4.35
2023-05-04T20:55:31.304Z,4.32
2023-05-04T20:57:58.835Z,4.47
2023-05-04T21:00:26.372Z,3.58
2023-05-04T21:02:54.651Z,4.47
2023-05-04T21:05:22.377Z,4.43
2023-05-04T21:07:51.996Z,5.00
2023-05-04T21:10:19.974Z,3.95
2023-05-04T21:12:47.335Z,4.32
2023-05-04T21:15:15.118Z,4.80
2023-05-04T21:17:42.476Z,4.35
2023-05-04T21:20:10.423Z,4.60
2023-05-04T21:22:37.940Z,4.63
2023-05-04T21:25:06.244Z,4.80
2023-05-04T21:27:34.053Z,5.10
2023-05-04T21:30:04.183Z,4.80
2023-05-04T21:32:31.536Z,5.18
2023-05-04T21:34:59.063Z,5.07
2023-05-04T21:37:26.871Z,4.60
2023-05-04T21:39:55.705Z,4.80
2023-05-04T21:42:23.788Z,4.30
2023-05-04T21:44:57.264Z,4.75
2023-05-04T21:47:24.779Z,4.78
2023-05-04T21:49:53.326Z,4.72
2023-05-04T21:52:20.868Z,4.90
2023-05-04T21:54:48.836Z,4.18
2023-05-04T21:57:16.160Z,4.57
2023-05-04T21:59:43.761Z,4.72
2023-05-04T22:02:10.989Z,4.88
2023-05-04T22:04:43.196Z,4.82
2023-05-04T22:07:10.900Z,5.35
2023-05-04T22:09:38.350Z,4.70
2023-05-04T22:12:06.022Z,4.30
2023-05-04T22:14:33.734Z,4.50
2023-05-04T22:17:01.466Z,4.60
2023-05-04T22:19:29.116Z,4.63
2023-05-04T22:21:56.474Z,4.78
2023-05-04T22:24:26.194Z,4.57
2023-05-04T22:26:53.439Z,4.38
2023-05-04T22:29:21.056Z,4.30
2023-05-04T22:31:48.363Z,4.25
2023-05-04T22:34:16.004Z,4.57
2023-05-04T22:36:43.191Z,4.43
2023-05-04T22:39:10.712Z,4.40
2023-05-04T22:41:37.966Z,4.25
2023-05-04T22:44:05.742Z,4.80
2023-05-04T22:46:33.057Z,4.75
2023-05-04T22:49:00.582Z,4.35
2023-05-04T22:51:28.461Z,4.63
2023-05-04T22:53:55.988Z,4.50
2023-05-04T22:56:23.283Z,4.32
2023-05-04T22:58:51.170Z,4.20
2023-05-04T23:01:18.529Z,4.47
2023-05-04T23:03:46.294Z,4.10
2023-05-04T23:06:13.689Z,3.95
2023-05-04T23:08:41.248Z,4.32
2023-05-04T23:11:08.460Z,4.28
2023-05-04T23:13:35.971Z,4.53
2023-05-04T23:16:03.953Z,4.15
2023-05-04T23:18:32.992Z,5.07
2023-05-04T23:21:01.182Z,4.40
2023-05-04T23:23:28.679Z,4.53
2023-05-04T23:25:56.094Z,3.88
2023-05-04T23:28:23.668Z,3.97
2023-05-04T23:30:51.068Z,4.30
2023-05-04T23:33:18.518Z,3.90
2023-05-04T23:35:46.196Z,4.05
2023-05-04T23:38:13.721Z,4.00
2023-05-04T23:40:40.970Z,3.97
2023-05-04T23:43:08.471Z,4.28
2023-05-04T23:45:35.733Z,3.97
2023-05-04T23:48:03.894Z,4.30
2023-05-04T23:50:31.126Z,4.05
2023-05-04T23:52:58.571Z,3.92
2023-05-04T23:55:26.220Z,3.72
2023-05-04T23:57:53.788Z,4.28
